• Back
  •  
  • Position of Reservoir Gates
S.No.
No. of opened gates
Position of opening (In m)
Reporting Date
Reporting Time
Discharge in Cumecs
Discharge in Cusecs
Actual date and time of Gate opening
1
2
3
4
5
6
7
8
1 6 1.5 19/08/2020 6:00:00 AM 1442 50924.23
2 10 2.4 20/08/2020 8:00:00 AM 3720 131371.8 10 gates are opened and gates opening heights average is 2.4 M
3 2 0.5 16/07/2016 2:00:00 PM 163 5756.34
4 3 0.5 20/08/2020 5:00:00 PM 254.7 8994.73
5 8 1.88 22/08/2020 10:00:00 AM 2437 86062.65 3 gates opening- 2.5 5 gate opening - 1.5
6 8 2.17 22/08/2020 1:00:00 PM 4181 147652.01 4 gate opening - 1.5 m 8 gate opening - 2.5 m
7 14 3.07 22/08/2020 4:30:00 PM 7199 254232.68 8 gate opening- 4 m 4 gate opening - 2 m 2 gate opening -1.5 m
8 16 3.81 22/08/2020 7:00:00 PM 9163 323591.34 323584 cusec
9 12 2.16 23/08/2020 12:10:00 AM 415 14655.72
10 12 2.16 23/08/2020 12:10:00 AM 4181 147652.01
11 12 3.66 23/08/2020 1:00:00 AM 6702 236681.13 236692 cusec
12 6 1 24/08/2020 8:00:00 AM 992.9 35064.26
13 8 1.5 25/08/2020 12:00:00 PM 2435 85992.02
14 12 2 23/08/2020 8:00:00 AM 2559 90371.08
15 6 1 23/08/2020 12:00:00 PM 1106 39058.39
16 6 1 24/08/2020 8:00:00 AM 1106 39058.39 Gate opened on Dated 23/08/2020 at 12.00PM
17 8 1.37 25/08/2020 8:00:00 AM 1828 64555.82 1) Gates No 8 to 13 opened @ 1.5 M 2) Gates No 7 and 14 opened @1.0M
18 3 1 16/07/2016 8:00:00 AM 487 17198.4
19 2 0.5 17/07/2016 8:00:00 AM 163 5756.34
20 3 1 19/07/2016 10:00:00 AM 586.1 20698.12
21 8 1.5 26/08/2020 12:00:00 AM 2435 85992.02
22 8 1.88 26/08/2020 8:00:00 AM 2435 85992.02
23 8 1.88 27/08/2020 12:00:00 AM 2435 85992.02
24 6 0.75 27/08/2020 8:00:00 AM 766.7 27076.01 1) 3 Gates opened @ 1.0 M 2) 3 Gates opened @ 0.50 M
25 6 0.5 27/08/2020 3:00:00 PM 519.7 18353.21
26 2 0.5 18/07/2016 8:00:00 AM 163 5756.34
27 3 1 18/07/2016 10:00:00 AM 586.1 20698.12
28 0 0 28/08/2020 11:10:00 PM 0 0 All gates are closed
29 6 0.5 28/08/2020 12:00:00 AM 519.7 18353.21
30 8 1.87 28/08/2020 6:00:00 PM 2437 86062.65
31 8 1.87 29/08/2020 12:00:00 AM 2437 86062.65 Actual Date of Gate Opening 28.08.2020 & Time 6.00 PM
32 3 0.5 19/07/2016 11:00:00 AM 244 8616.86
33 1 0.1 24/07/2016 8:00:00 AM 10 353.15
34 0 0 24/07/2016 8:01:00 AM 0 0
35 3 1 24/07/2016 11:30:00 AM 487 17198.4
36 6 1.5 24/07/2016 6:00:00 PM 1422 50217.93
37 6 1.5 25/07/2016 8:01:00 AM 1422 50217.93
38 3 1 25/07/2016 6:00:00 PM 489 17269.03
39 3 0.5 26/07/2016 8:01:00 AM 244 8616.86
40 3 0.5 27/07/2016 8:01:00 AM 249.3 8804.03
41 3 1 27/07/2016 4:01:00 PM 498.4 17601
42 3 1 28/07/2016 12:01:00 AM 498.4 17601
43 6 1.5 28/07/2016 2:01:00 PM 1422 50217.93
44 3 0.5 30/07/2016 12:01:00 AM 249 8793.43 Dt of opening 29/7/2016 9.00AM
45 3 0.5 01/08/2016 12:01:00 AM 249 8793.43 gate open 29/07/2016 9: AM
46 14 2.42 29/08/2020 11:00:03 AM 6652 234915.38 1) 6 Gates @ 4.00 M 2) 4 Gates @ 3.00 M 3) 4 Gates @ 1.50M
47 16 3.87 29/08/2020 1:30:00 PM 9547 337152.3
48 3 1.5 29/07/2016 12:01:00 AM 711 25108.97
49 3 0.5 29/07/2016 9:00:00 AM 249 8793.43 Gate Openings were decreased to 0.50m each at 9 AM on 29/07/2016
50 3 0.5 31/07/2016 12:01:00 AM 249 8793.43 Dt of opening 29/7/2016 9:00AM
51 11 1.5 03/08/2016 8:00:00 AM 2606 92030.89
52 15 2.2 04/08/2016 9:15:00 AM 7118 251372.17 Average gate opening-2.20m
53 16 3.87 30/08/2020 12:00:00 AM 9547 337152.3 Gates opened on dated 29.08.2020 at 1.30PM
54 16 3.87 30/08/2020 8:00:00 AM 9547 337152.3
55 16 3.87 30/08/2020 12:00:00 PM 9547 337152.3
56 6 1.5 01/08/2016 4:00:00 PM 1422 50217.93
57 11 1.5 02/08/2016 11:00:00 AM 2605 91995.57
58 8 1.5 03/08/2016 9:30:00 AM 2010 70983.15 08 No. Gates are Opened at 9.30A.M. Dated 03/08/2016
59 11 1.5 04/08/2016 12:01:00 AM 2664 94079.16 gate open-3/8/2016 10 PM
60 16 3.38 30/08/2020 4:00:00 PM 8460 298764.9
61 16 3.38 31/08/2020 12:00:00 AM 8407 296893.2 Gates Opened on Dated 30.08.2020 at 4.00 PM
62 15 1.86 05/08/2016 12:01:00 AM 4448 157081.12 Gate open-4/8/2016 11.00 PM.Av. open-1.86m
63 11 1.5 05/08/2016 11:45:00 AM 2661 93973.21
64 6 1.5 06/08/2016 12:01:00 AM 1452 51277.38 Av. gate opening-1.50m.Gate open-5/8/2016 11:00 PM
65 11 1.5 06/08/2016 12:30:00 PM 2663 94043.85
66 11 1.5 07/08/2016 12:01:00 AM 2663 94043.85 Gate open-6/8/2016 12:30 PM
67 11 07/08/2016 8:00:00 AM 2663
68 16 1.5 07/08/2016 4:01:00 PM 4478 158140.57 Av opening-1.50m
69 16 2 07/08/2016 6:01:00 PM 4502 158988.13
70 16 2.8 08/08/2016 12:01:00 AM 6908 243956.02 Av opening-2.80m.Gate open-7/8/2016 8:30 PM
71 5 1.3 10/08/2016 12:00:00 AM 1082 38210.83 Gate open 9/8/2016 4:30 PM
72 8 1.8 01/09/2020 12:00:00 AM 2437 86062.65 31/08/2020 12.00PM
73 8 1.6 02/09/2020 12:00:00 AM 2437 86062.65 01/09/2020 12.00PM
74 5 1.3 02/09/2020 9:00:00 PM 1128 39835.32
75 11 08/08/2016 8:00:00 AM 8490
76 5 1.3 03/09/2020 12:00:00 AM 1128 39835.32
77 3 1.16 05/09/2020 12:00:00 AM 610.3 21552.74 04/09/2020 8.00 PM
78 3 0.5 06/09/2020 12:00:00 AM 270 9535.05 05/09/2020 8.00PM
79 3 0.5 06/09/2020 4:00:00 PM 270 9535.05
80 2 0.5 10/09/2020 8:00:00 PM 180 6356.7
81 2 0.5 12/09/2020 8:00:00 AM 151.7 5357.29
82 3 1 12/09/2020 12:00:00 AM 527.3 18621.6
83 2 0.5 12/09/2020 4:00:00 PM 180 6356.7
84 16 3.5 08/08/2016 11:40:00 AM 8826 311690.19 Av. Gate opening-3.50m
85 3 0.66 13/09/2020 8:00:00 PM 356 12572.14
86 3 0.66 12/09/2020 8:00:00 PM 356 12572.14
87 3 0.66 13/09/2020 8:00:00 AM 356 12572.14
88 3 0.66 13/09/2020 4:00:00 PM 356 12572.14
89 3 0.66 14/09/2020 12:00:00 PM 355.8 12565.08
90 1 0.5 16/09/2020 12:00:00 PM 90.1 3181.88
91 1 0.5 17/09/2020 8:00:00 AM 90 3178.35
92 1 0.5 18/09/2020 12:00:00 AM 90.01 3178.7
93 1 0.5 18/09/2020 12:00:00 PM 90 3178.35
94 1 0.5 19/09/2020 8:00:00 AM 90.01 3178.7
95 5 1.5 09/08/2016 4:00:00 AM 1211 42766.46
96 3 1 11/08/2016 7:00:00 AM 506 17869.39
97 3 0.5 12/08/2016 12:00:00 AM 259 9146.58 Gate open-11/8/2016 9 PM
98 3 1.5 12/08/2016 12:30:00 PM 745 26309.67
99 3 0.5 13/08/2016 6:00:00 AM 259 9146.58
100 4 1.25 17/08/2016 11:00:00 AM 662 23378.53
101 2 0.5 23/09/2020 4:00:00 AM 180 6356.7 23/09/2020 3.30AM
102 2 1 23/09/2020 4:00:00 PM 351.6 12416.75
103 4 0.89 16/08/2016 4:00:00 AM 593 20941.79
104 4 1.25 19/08/2016 10:30:00 AM 831 29346.76 Average gate opening-1.25m
105 2 1 24/09/2020 12:00:00 AM 315.6 11145.41
106 3 1.5 24/09/2020 4:00:00 PM 776.1 27407.97
107 5 1.3 24/09/2020 8:00:00 PM 1127 39800
108 16 22/08/2016 8:00:00 AM 8727
109 3 1 17/08/2016 12:00:00 AM 506 17869.39 gate open 16/8/2016 4 PM
110 11 1.5 24/08/2016 5:00:00 AM 2732 96480.58
111 6 1.5 25/09/2020 12:00:00 AM 1552 54808.88
112 3 1 25/09/2020 4:00:00 PM 527.4 18625.13
113 3 1 26/09/2020 12:00:00 AM 527 18611
114 2 0.5 27/09/2020 12:00:00 AM 180 6356.7
115 18 3.66 21/08/2016 4:01:00 PM 9933 350783.89
116 3 1.16 28/09/2020 12:00:00 AM 610.5 21559.81
117 2 0.5 29/09/2020 12:00:00 AM 180 6356.7
118 5 1.5 14/08/2016 6:00:00 AM 1241 43825.91
119 2 1 27/09/2020 12:00:00 PM 351.6 12416.75
120 2 0.5 28/09/2020 12:00:00 PM 181 6392.01
121 3 1 29/09/2020 12:00:00 PM 527.4 18625.13
122 2 1 30/09/2020 8:00:00 AM 351.6 12416.75
123 0 0 30/09/2020 4:00:00 PM 0 0 ALL GATES ARE CLOSED
124 11 1.41 14/08/2016 9:00:00 AM 2569 90724.24
125 7 1.35 15/08/2016 5:00:00 AM 1576 55656.44
126 18 4.62 21/08/2016 12:30:00 AM 11989 423391.53
127 11 1.5 22/08/2016 6:00:00 AM 2732 96480.58
128 4 0.5 18/08/2016 1:00:00 AM 346 12218.99
129 6 1.5 23/08/2016 2:00:00 AM 1490 52619.35
130 8 1.5 06/08/2021 12:00:00 PM 1353 47781.19 06/08/2021
131 6 1.5 06/08/2021 12:00:00 PM 1353 47781.19 06/08/2021
132 12 3 06/08/2021 4:00:00 PM 5443 192219.54
133 16 3.75 06/08/2021 8:00:00 PM 8030 283579.45
134 15 2.5 07/08/2021 8:00:00 AM 9818 346722.67 07/08/2021
135 10 1.5 08/08/2021 8:00:00 AM 2310 81577.65 08/08/2021
136 5 1.5 09/08/2021 8:00:00 AM 1155 40788.82 09/08/2021
137 5 1.5 10/08/2021 8:00:00 AM 1155 40788.82 10/08/2021
138 18 3.63 20/08/2016 11:00:00 AM 10042 354633.23
139 4 1.25 17/08/2016 11:01:00 AM 832 29382.08
140 4 0.4 19/08/2016 12:00:00 AM 346 12218.99 Gate open 18/8/16 1AM
141 18 4.25 20/08/2016 1:00:00 PM 11555 408064.82 Av. opening-4.25m
142 5 1.5 10/08/2021 4:00:00 PM 1155 40788.82
143 5 1.5 11/08/2021 8:00:00 AM 1155 40788.82 08/08/2021
144 5 1.5 11/08/2021 4:00:00 PM 1155 40788.82
145 5 1.5 12/08/2021 8:00:00 AM 1155 40788.82 08/08/2021
146 3 1 13/08/2021 8:00:00 AM 488 17233.72 13/08/2021
147 0 0 13/08/2021 12:00:00 PM 0 0 13/08/2021 12.00 PM
148 6 1 23/08/2016 2:00:00 PM 1013 35774.1
149 16 3.63 20/08/2016 1:00:00 AM 8732 308370.58 Av opening 3.625m
150 6 1 20/08/2021 8:00:00 AM 1251 44179.06 20/08/2021 1.30PM
151 6 1 20/08/2021 12:00:00 PM 1251 44179.06 20/08/2021 1.30 PM
152 6 2.5 21/08/2021 8:00:00 AM 2375 83873.13
153 3 0.5 23/08/2021 8:00:00 AM 260 9181.9 23/08/2021
154 6 1.5 25/08/2016 12:01:00 AM 1490 52619.35
155 3 1.5 25/08/2016 1:30:00 PM 745 26309.67
156 3 0.5 26/08/2016 12:00:00 AM 259 9146.58 Gate open-25/8/2016 10 PM
157 0 0 23/08/2021 5:00:00 PM 0 0
158 5 1.5 06/09/2021 8:00:00 AM 2307 81471.71 06/09/2021
159 8 1.5 06/09/2021 8:00:00 AM 2307 81471.71 06/09/2021
160 3 1 26/08/2016 3:30:00 PM 506.5 17887.05 Gate opened at 15:30 on 26/08/2016
161 0 0 06/09/2021 4:00:00 PM 0 0
162 3 1 07/09/2021 8:00:00 AM 527.4 18625.13 07/09/2021
163 3 1 08/09/2021 8:00:00 AM 527.4 18625.13 09/09/02021
164 3 1 08/09/2021 8:00:00 AM 527.4 18625.13 08/09/02021
165 1 1 09/09/2021 8:00:00 AM 175.8 6208.38 09/09/2021
166 3 1.33 09/09/2021 8:00:00 PM 693.2 24480.36
167 5 1.5 10/09/2021 8:00:00 AM 1293 45662.29
168 5 1.5 10/09/2021 12:00:00 PM 1293 45662.29
169 8 1.69 11/09/2021 8:00:00 AM 2306 81436.39
170 3 1.5 12/09/2021 8:00:00 AM 790 27898.85
171 3 1.5 12/09/2021 12:00:00 PM 776 27404.44
172 4 1.5 27/08/2016 7:00:00 AM 993 35067.79
173 4 1.5 28/08/2016 8:00:00 AM 993 35067.79 Gate opened at 7 am on 27.08.2016
174 6 1.5 29/08/2016 4:00:00 AM 1489 52584.03
175 7 1.5 29/08/2016 11:01:00 AM 1738 61377.47
176 3 1.5 29/08/2016 7:00:00 PM 745 26309.67
177 3 1.5 30/08/2016 12:00:00 AM 745 26309.67 Gate open-29/8/2016 7 PM
178 3 1.5 13/09/2021 12:00:00 PM 776.1 27407.97 13.9.21 12pm
179 2 1 14/09/2021 8:00:00 AM 351.6 12416.75 14.9.22 8am
180 2 0.25 14/09/2021 12:00:00 PM 175 6180.13 14.9.21 12 am
181 2 1 14/09/2021 12:00:00 PM 351.6 12416.75 14.9.21 12am
182 0 0 30/08/2016 10:00:00 AM 0 0 closed
183 3 1.5 15/09/2021 8:00:00 PM 355.8 12565.08
184 3 0.6 16/09/2021 8:00:00 AM 525.7 18565.1 16/09/2021
185 3 1.5 16/09/2021 4:00:00 PM 776.1 27407.97
186 8 1.5 17/09/2021 8:00:00 AM 2306 81436.39 17/09/2021
187 3 1.5 17/09/2021 4:00:00 PM 776.1 27407.97
188 3 1.5 18/09/2021 8:00:00 AM 776 27404.44 18/07/2021
189 3 1.5 18/09/2021 12:00:00 PM 776 27404.44
190 3 1.5 19/09/2021 8:00:00 AM 776 27404.44
191 4 1.5 20/09/2021 8:00:00 AM 1034 36515.71 20/09/2021
192 3 1 20/09/2021 4:00:00 PM 527.4 18625.13
193 3 1 21/09/2021 8:00:00 AM 527 18611 21/09/2021
194 3 0.5 23/09/2021 4:00:00 PM 270 9535.05
195 3 0.5 24/09/2021 8:00:00 AM 270 9535.05 24/09/2021
196 3 0.5 25/09/2021 8:00:00 AM 270 9535.05
197 3 0.5 25/09/2021 12:00:00 PM 270 9535.05
198 3 0.5 26/09/2021 8:00:00 AM 270 9535.05
199 2 0.5 04/09/2016 11:00:00 AM 176 6215.44
200 1 0.25 14/09/2016 8:30:00 AM 44.15 1559.16 Gate opened 01, 12/09/2016, 0.25 M
201 1 1 15/09/2016 7:30:00 AM 172.4 6088.31
202 1 0.7 16/09/2016 8:30:00 AM 123.1 4347.28 Gate open 0.70 M Date 15/09/16 Tame 8.30 PM
203 1 0.7 17/09/2016 12:00:00 AM 123 4343.74 Gate open 15/9/2016 8:30 PM
204 1 0.7 18/09/2016 12:00:00 AM 123 4343.74 Gate opened 15.9.16 8:30 pm
205 2 0.85 18/09/2016 8:30:00 AM 299 10559.18
206 3 0.5 27/09/2021 8:00:00 AM 270 9535.05 27.9.21 8am
207 3 0.5 28/09/2021 8:00:00 AM 270 9535.05 28/09/2021
208 0 0 28/09/2021 8:00:00 PM 0 0
209 2 0.85 19/09/2016 12:00:00 AM 299 10559.18 Gate opened 18/9/2016 8:30 PM
210 1 0.5 29/09/2021 8:00:00 PM 90 3178.35
211 2 0.5 20/09/2016 12:00:00 AM 299 10559.18 Gate open 17/9/2016 8:30 AM
212 1 0.5 30/09/2021 8:00:00 AM 90 3178.35 30/09/2021
213 2 0.85 21/09/2016 12:00:00 AM 299 10559.18 Gate open 17/9/2016 8:30 AM
214 1 0.5 22/09/2016 7:00:00 AM 90 3178.35
215 1 1 23/09/2016 12:00:00 AM 175 6180.13 Gate open 22/9/2016 10 PM
216 2 0.85 23/09/2016 3:01:00 PM 298.8 10552.12
217 2 0.85 24/09/2016 12:00:00 AM 298 10523.87 Gate open 23/9/2016 3 PM
218 1 0.6 25/09/2016 9:00:00 AM 105 3708.07
219 1 0.6 26/09/2016 12:00:00 AM 105 3708.07 Gate open 25/9/16 9AM
220 1 0.8 27/09/2016 12:00:00 AM 140 4944.1 Gate open 26/9/2016 8:30 PM
221 1 0.5 30/09/2016 10:01:00 AM 90 3178.35 Gate open 0.50 M Date 27/09/16, 10.00 PM
222 1 0.5 01/10/2016 12:00:00 AM 90 3178.35
223 1 0.8 04/10/2016 12:00:00 AM 141 4979.41 Gate open 3/10/16 10:30AM
224 1 0.8 05/10/2016 12:00:00 AM 140.6 4965.29 Gate open 0.80 M Date 4/10/16, Time 10:00 PM
225 1 0.8 06/10/2016 12:00:00 AM 140.6 4965.29 Gate open 0.80 M, Date 4/10/16, Time 10:00 PM
226 1 1.2 07/10/2016 10:01:00 AM 211 7451.46
227 2 0.8 10/10/2016 7:30:00 AM 141 4979.41
228 1 0.3 13/10/2016 12:00:00 AM 53 1871.69 Gate open 0.30 M, Date 12/10/16,Time 11:00 AM.
229 1 0.3 14/10/2016 12:00:00 AM 53 1871.69 Gate open 0.30 M, Date 12/10/16, Time 11:00 AM
230 1 0.3 15/10/2016 12:00:00 AM 53 1871.69 Gate open 0.30m date 12/10/16 time 11:00AM
231 1 0.3 17/10/2016 12:00:00 AM 53 1871.69 Gate open 0.30 M, Date 12/10/16, Time 11:00 AM
232 1 0.3 18/10/2016 12:00:00 AM 53 1871.69 Gate open 0.30 M, Date 12/10/16, Time 11:00 AM.
233 1 0.3 19/10/2016 12:00:00 AM 53 1871.69 Gate Open 0.30 M, Date 12/10/16, Time 11:00 AM.
234 1 0.3 20/10/2016 12:00:00 AM 53 1871.69 Gate opend 0.30 M, Date 12/9/16 Time 11:00 AM.
235 1 0.3 21/10/2016 12:00:00 AM 53 1871.69 Gate Open 0.30 M, Date 12/10/16, Time 11:00 AM.
236 0 0 22/10/2016 9:01:00 PM 0 0 Closed
237 8 23/09/2017 6:44:00 AM 2214
238 8 1.5 23/09/2017 6:44:00 AM 2214 78187.41 05 Gate @1.5 M Each & 03 Gate @ 2.0 M Each
239 2 0.3 27/09/2017 10:30:00 AM 108 3814.02
240 2 0.3 27/09/2017 10:30:00 AM 108 3814.02 2 gates open 0.30m each
241 2 27/09/2017 10:30:00 AM 108
242 2 0.3 27/09/2017 10:30:00 AM 108 3814.02 02 Nos Gates @ 0.30 M each
243 2 0.3 27/09/2017 10:30:00 AM 108 3814.02
244 2 0.3 28/09/2017 10:30:00 AM 108 3814.02
245 2 28/09/2017 12:00:00 AM 108
246 2 0.3 28/09/2017 12:00:00 AM 108 3814.02 2 Nos@0.30M each since yesterday (10.30 am).
247 2 29/09/2017 12:00:00 AM 108
248 2 0.3 29/09/2017 12:00:00 AM 108 3814.02 2 Nos@0.30M each since Dated 27/09/2017 (10.30 am).
249 11 1.5 22/08/2018 12:01:00 AM 2732 96480.58 each gate opening 1.50m since 21/8/2018at11pm passing discharge 96470cusec
250 11 2.27 22/08/2018 11:00:00 AM 4247 149982.8 Discharge passing through gates 150000 cusecs
251 14 2.14 22/08/2018 5:00:00 PM 4833 170677.39 14nos.gate av.opening 2.142m passing DIscharge 170682 cusecs
252 14 2.14 23/08/2018 12:01:00 AM 4833 170677.39 14nos.gate av.opening 2.142m passing Q=170682cusecs since 22/8/2018 (5:0pm)
253 10 1.5 23/08/2018 5:00:00 AM 2483 87687.14 each gate opening 1.50m passing discharge 87700 cusecs
254 5 1.5 23/08/2018 5:00:00 PM 1490 52619.35 5 gate opening 1.50m each passing discharge52620 cusec
255 5 1.5 24/08/2018 12:01:00 AM 1490 52619.35 each gate opening 1.5m passing discharge 52620 cusecs since 23/8/2018 (5 :00 pm)
256 0 0 24/08/2018 10:00:00 AM 0 0 All gates closed at 10:00AM
257 0 0 24/08/2018 12:00:00 PM 0 0
258 5 1 29/08/2018 2:00:00 PM 862.5 30459.19 Each gate open in 1 meter, passing discharge 30459 cusecs
259 3 0.5 04/09/2018 12:01:00 AM 260 9181.9 3 gates opened continuasaly 3/9/18 at 4:00PM
260 8 1 06/09/2018 12:02:00 AM 1380 48734.7 each gate opening 1.0m since 5/9/2018 (11:0pm)
261 2 0.5 16/09/2018 12:01:00 AM 180 6356.7 each gate opening 0.50m since 15/9/2018 (2:0pm)
262 0 0 17/09/2018 12:02:00 AM 0 0 all gates are closed since 16/9/2018 (9.0pm)
263 5 1 30/08/2018 12:01:00 AM 862.5 30459.19 each gate opening 1.0m since 29/8/2018 (2:0 pm)
264 7 1 30/08/2018 12:02:00 AM 1207 42625.2 each gate opening 1.0m since29/8/2018 (10:0pm)passing discharge 42637cusecs
265 7 1 31/08/2018 12:01:00 AM 1207 42625.2 each gate opening 1.0m passing discharge 42637 cusecs since 29/8/2018 (10:0 pm)
266 3 0.5 31/08/2018 6:00:00 AM 259.8 9174.84
267 8 1.75 06/09/2018 12:10:00 PM 2430 85815.45 gate opening 1.75 maverage
268 3 0.5 01/09/2018 12:01:00 AM 259.9 9178.37
269 8 1.5 01/09/2018 8:00:00 AM 2209 78010.83 Bargi dam 11 gates had been opened since 31st August 2018 at 11:00pm. gates continually open 1:00PM till today.
270 14 2.36 02/09/2018 2:30:00 AM 5365 189464.97 averages gate opening 2.357m
271 8 1.31 02/09/2018 9:00:00 AM 1748 61730.62 av.gate opening 1.31m passing discharge 61748 cusecs
272 5 1 03/09/2018 12:01:00 AM 844.7 29830.58 each gate opening 1.0m since 2/9/2018 (3:30pm)
273 5 1 02/09/2018 3:30:00 PM 844.7 29830.58
274 3 1 03/09/2018 6:30:00 PM 506.8 17897.64 each gate opening 1.0m since 2/9/2018 (6:30pm)
275 3 0.5 03/09/2018 4:00:00 PM 25490 900179.35
276 3 0.5 03/09/2018 4:00:00 PM 260 9181.9
277 3 0.5 04/09/2018 12:01:00 AM 260 9181.9 3 Gates opened continuasaly 3/9/18 at 4:00PM
278 3 0.5 05/09/2018 12:01:00 AM 260 9181.9 each gate opening 0.50m since 3/9/2018 (4pm)
279 3 1 05/09/2018 9:00:00 AM 506.8 17897.64
280 5 1 05/09/2018 4:00:00 PM 844.7 29830.58
281 5 1 06/09/2018 12:01:00 AM 844.7 29830.58 each gate opening 1.0m since 5/9/2018 (4:0pm)
282 8 1.75 06/09/2018 11:00:00 AM 2317 81824.85
283 2 0.5 11/09/2018 1:15:00 AM 180 6356.7
284 2 0.5 12/09/2018 12:01:00 AM 180 6356.7
285 2 0.5 13/09/2018 12:01:00 AM 180 6356.7
286 3 0.43 14/09/2018 12:01:00 AM 347 12254.3 av.gate opening 0.433m since 13/9/2018 (1:30pm)
287 3 0.4 13/09/2018 1:30:00 PM 347 12254.3 each gate opening is 0.40 m since 13/9/18(1.30PM)
288 3 0.5 14/09/2018 3:00:00 PM 382.3 13500.92
289 3 0.5 15/09/2018 12:01:00 AM 382.3 13500.92 each gate opening 0.50m since 14/9/2018 (3pm)
290 2 0.5 15/09/2018 2:00:00 PM 180 6356.7
291 1 0.5 16/09/2018 12:00:00 PM 90 3178.35
292 2 0.5 17/09/2018 12:01:00 AM 90 3178.35 each gate opening 0.50m since 16/9/2018 (12:0pm)
293 0 0 16/09/2018 9:00:00 PM 0 0
294 3 1 09/08/2019 6:00:00 PM 461.8 16310.94
295 3 1 10/08/2019 12:11:11 AM 461.8 16308.47
296 10 1.3 10/08/2019 8:00:00 AM 2068 73031.42 6 gate open 1.5m and 4 gate open 1m
297 10 1.3 11/08/2019 6:44:00 AM 2068 73031.42
298 3 1 11/08/2019 9:30:00 AM 486 17163.09
299 0 0 11/08/2019 2:30:00 PM 0 0 all gates are closed
300 10 1.6 14/08/2019 3:00:00 AM 2622 92595.93 water level at 6am is 369.95 m on dated 14/8/2019
301 16 2.75 14/08/2019 12:30:00 PM 6867 242508.1
302 16 2.75 15/08/2019 12:01:00 AM 6867 242508.1
303 10 1.6 15/08/2019 8:00:00 AM 2623 92631.24
304 16 5 15/08/2019 6:00:00 PM 12743 450019.04
305 16 5 16/08/2019 12:01:00 AM 12743 450019.04
306 16 5 17/08/2019 12:08:00 AM 12743 450019.04
307 16 5 18/08/2019 12:31:00 AM 127.4 4499.13
308 0 0 22/08/2019 10:30:00 AM 0 0 all gates are closed
309 6 2.25 22/08/2019 12:01:00 AM 2153 76033.19 gate opening since 21/8/2019 at4pm
310 0 0 18/08/2019 6:10:00 AM 0 0 all gates are closed on dated 16/8/2019 at 11:45pm
311 5 2.1 20/08/2019 12:01:00 AM 2039 72007.28
312 3 1.16 18/08/2019 9:45:00 PM 586.2 20701.65
313 3 1.16 19/08/2019 12:20:00 AM 586.2 20701.65
314 5 2.1 19/08/2019 4:00:00 PM 2039 72007.28
315 6 2.6 20/08/2019 8:00:00 AM 2202 77763.63 gate opening since 19/8/2019 at7:0pm
316 6 2.6 21/08/2019 6:58:00 AM 2202 77763.63 gates opening since 20/8/2019at8:0pm
317 6 2.25 21/08/2019 10:03:00 AM 2153 76033.19
318 3 1.5 24/08/2019 10:00:00 AM 745 26309.67
319 6 2.5 24/08/2019 11:30:00 AM 2375 83873.13
320 6 2.5 25/08/2019 12:01:00 AM 2375 83873.13
321 12 3.25 25/08/2019 6:50:00 AM 6145 217010.67
322 16 3.59 25/08/2019 4:00:00 PM 9146 322990.99
323 16 3.59 26/08/2019 12:05:00 AM 9146 322990.99
324 8 2 26/08/2019 8:00:00 AM 2530 89346.95
325 8 2 27/08/2019 12:05:00 AM 2530 89346.95
326 6 2 27/08/2019 8:00:00 AM 1898 67027.87
327 3 0.5 27/08/2019 8:00:00 PM 259.9 9178.37
328 3 0.5 28/08/2019 12:01:00 AM 259.9 9178.37
329 3 2 28/08/2019 9:00:00 AM 993 35067.79
330 8 1.88 29/08/2019 4:00:00 PM 2494 88075.61
331 8 1.87 28/08/2019 11:30:00 AM 2494 88075.61
332 8 1.88 30/08/2019 8:00:00 PM 2494 88075.61
333 12 3.5 28/08/2019 6:00:00 PM 6539 230924.78
334 12 3.5 29/08/2019 12:01:00 AM 6539 230924.78
335 6 1.5 29/08/2019 11:30:00 AM 1522 53749.43
336 10 1.9 29/08/2019 1:00:00 PM 2494 88075.61
337 8 1.88 30/08/2019 12:01:00 AM 2494 88075.61
338 8 1.88 31/08/2019 12:01:00 AM 2494 88075.61
339 8 0.5 31/08/2019 4:00:00 PM 125 4414.38
340 3 1.5 03/09/2019 8:00:00 AM 776.1 27407.97
341 8 1.9 03/09/2019 5:00:00 PM 2544 89841.36
342 8 0.83 04/09/2019 8:00:00 AM 2260 79811.9
343 3 1.5 05/09/2019 8:00:00 AM 761.1 26878.25
344 3 0.5 05/09/2019 12:00:00 PM 270 9535.05
345 3 0.5 05/09/2019 5:00:00 PM 270 9535.05
346 6 2 05/09/2019 7:30:00 PM 2027 71583.5
347 10 2.6 06/09/2019 9:03:00 AM 4297 151748.55
348 12 3.16 06/09/2019 12:15:00 PM 6123 216233.74
349 8 1.87 06/09/2019 4:00:00 PM 2544 89841.36
350 8 1.87 07/09/2019 12:05:00 AM 2544 89841.36
351 8 1.87 06/09/2019 4:00:00 PM 2544 89841.36
352 8 1.88 07/09/2019 10:30:00 AM 2544 89841.36
353 6 1.5 07/09/2019 4:00:00 PM 1552 54808.88
354 6 1.5 07/09/2019 4:00:00 PM 1552 54808.88
355 6 1.5 08/09/2019 8:00:00 AM 1552 54808.88
356 6 1.5 09/09/2019 3:00:00 AM 1554 54879.51
357 16 3.5 09/09/2019 12:20:00 PM 8943 315822.04
358 16 4 09/09/2019 6:00:00 PM 10071 355657.36
359 16 4 10/09/2019 8:00:00 AM 10241 361660.91
360 16 4 11/09/2019 6:00:00 AM 10241 361660.91
361 8 1.88 11/09/2019 7:00:00 AM 2443 86274.54
362 14 3.85 11/09/2019 8:00:00 AM 8491 299859.66
363 10 2.6 12/09/2019 12:01:00 AM 4207 148570.2
364 10 2.9 13/09/2019 3:20:00 AM 5665 200059.47
365 14 3.14 13/09/2019 4:00:00 PM 10517 371407.85
366 10 2.9 12/09/2019 4:00:00 PM 5663 199988.85
367 16 2.95 13/09/2019 8:00:00 PM 11337 400366.15
368 16 4.25 13/09/2019 11:00:00 AM 8988 317411.22
369 8 1.88 14/09/2019 12:00:00 PM 2544 89841.36
370 16 2.95 14/09/2019 12:01:00 AM 11337 400366.15
371 16 3.87 14/09/2019 2:30:00 PM 9780 345380.7
372 10 2 15/09/2019 8:00:00 AM 11929 421272.63
373 10 2.3 15/09/2019 1:14:00 PM 3837 135503.65
374 10 2.3 16/09/2019 12:01:00 AM 3837 135503.65 gate opening since 15/9/2019 at6:20pm
375 8 1.5 16/09/2019 1:00:00 PM 2069 73066.74
376 8 1.5 16/09/2019 1:00:00 PM 2069 73066.74
377 10 2.3 15/09/2019 6:20:00 PM 3837 135503.65
378 10 2.6 16/09/2019 7:00:00 PM 4296 151713.24
379 10 2.6 17/09/2019 12:01:00 AM 4296 151713.24
380 8 1.88 17/09/2019 8:00:00 AM 2544 89841.36
381 3 0.5 17/09/2019 4:00:00 PM 509.8 18003.59
382 6 1.5 20/09/2019 8:00:00 AM 1552 54808.88
383 6 1 20/09/2019 3:12:00 PM 1057 37327.95
384 10 3.2 18/09/2019 11:30:00 AM 5158 182154.77
385 8 1.87 18/09/2019 10:00:00 AM 2548 89982.62
386 3 0.5 18/09/2019 12:01:00 AM 509.8 18003.59 gate opening since 17/9/2019at 4:0pm
387 8 1.88 18/09/2019 8:00:00 AM 2544 89841.36
388 8 1.5 20/09/2019 12:01:00 AM 2544 89841.36
389 6 1.5 19/09/2019 4:00:00 PM 1552 54808.88
390 6 1 19/09/2019 8:00:00 AM 1055 37257.32
391 8 1.5 19/09/2019 8:00:00 PM 2544 89841.36
392 6 1 21/09/2019 12:01:00 AM 1057 37327.95
393 6 2 21/09/2019 9:00:00 AM 2027 71583.5
394 8 1.88 22/09/2019 10:00:00 AM 2544 89841.36
395 6 1.25 25/09/2019 8:00:00 AM 1304 46050.76
396 6 1 21/09/2019 9:00:00 PM 1055 37257.32
397 14 3.14 22/09/2019 5:00:00 PM 7123 251548.74
398 6 2 24/09/2019 4:00:00 PM 2140 75574.1
399 6 2 24/09/2019 12:00:00 PM 2140 75574.1
400 6 1 22/09/2019 12:01:00 AM 1055 37257.32
401 14 3.14 23/09/2019 1:19:00 AM 7123 251548.74
402 8 1.87 23/09/2019 8:00:00 AM 2544 89841.36
403 3 1 28/09/2019 4:25:00 AM 528 18646.32
404 6 1.5 28/09/2019 8:00:00 AM 1552 54808.88
405 6 1.25 26/09/2019 12:00:00 PM 1303 46015.44
406 6 1 24/09/2019 8:00:00 PM 1055 37257.32
407 6 1 25/09/2019 12:10:00 AM 1054 37222.01
408 8 1.87 24/09/2019 12:01:00 AM 2544 89841.36
409 6 1.25 25/09/2019 8:00:00 PM 1304 46050.76
410 6 1.25 26/09/2019 12:01:00 AM 1304 46050.76
411 8 1.87 26/09/2019 4:00:00 PM 2544 89841.36
412 8 1.87 27/09/2019 12:01:00 AM 2544 89841.36
413 3 1 27/09/2019 8:00:00 AM 528 18646.32
414 8 1.87 28/09/2019 8:00:00 PM 2544 89841.36
415 8 1.87 29/09/2019 12:30:00 AM 2544 89841.36
416 6 1.5 29/09/2019 10:00:00 AM 1552 54808.88
417 8 1.88 29/09/2019 4:00:00 PM 2261 79847.21
418 8 1.88 30/09/2019 12:01:00 AM 2544 89841.36
419 6 1.5 30/09/2019 6:00:00 AM 1552 54808.88
420 4 1 30/09/2019 10:00:00 AM 702.7 24815.85
421 4 1 01/10/2019 8:00:00 AM 702.7 24815.85
422 8 2 02/10/2019 4:00:00 PM 2261 79847.21
423 3 0.5 06/10/2019 9:00:00 AM 270 9535.05
424 1 0.5 14/10/2019 9:00:00 AM 90 3178.35
425 8 1.9 02/10/2019 10:00:00 AM 2544 89841.36
426 2 0.3 05/10/2019 8:00:00 PM 102 3602.13
427 8 2 02/10/2019 8:00:00 PM 2544 89841.36
428 8 2 03/10/2019 12:01:00 AM 2544 89841.36
429 4 1 03/10/2019 7:40:00 AM 703.3 24837.04
430 4 1 04/10/2019 12:01:00 AM 703.3 24837.04
431 3 0.83 04/10/2019 8:00:00 AM 441.7 15598.64
432 3 0.5 04/10/2019 4:00:00 PM 270 9535.05
433 1 0.5 12/10/2019 10:00:00 AM 90 3178.35
434 3 1 08/10/2019 10:00:00 AM 513.3 18127.19
435 1 0.5 11/10/2019 8:00:00 AM 175.8 6208.38
436 1 0.5 10/10/2019 1:00:00 PM 90.01 3178.7
437 0 0 09/10/2019 7:00:00 PM 0 0
438 1 0.5 13/10/2019 11:00:00 AM 90 3178.35
439 3 0.5 05/10/2019 12:01:00 AM 270 9535.05
440 2 0.3 06/10/2019 12:01:00 AM 102 3602.13
441 3 1 07/10/2019 7:00:00 PM 513.3 18127.19
442 3 0.5 05/10/2019 8:00:00 AM 270 9535.05
443 1 0.5 09/10/2019 2:00:00 PM 90.01 3178.7
444 3 0.5 07/10/2019 12:01:00 AM 270 9535.05
445 3 0.5 09/10/2019 8:00:00 AM 270 9535.05
446 0 0 08/10/2019 4:00:00 PM 0 0 all gates are closed
447 1 0.5 13/10/2019 9:00:00 PM 90.01 3178.7
448 0 0 14/10/2019 9:00:00 PM 0 0 All gates are closed
Powered by © Water Resources Department (MP). All Rights Reserved.